Time;durP1;ratioP1;P1;durP2;ratioP2;P2;SDS_P1;SDS_P2;PMS_P1;PMS_P2;Temp;Humidity;BMP_temperature;BMP_pressure;BME280_temperature;BME280_humidity;BME280_pressure;Samples;Min_cycle;Max_cycle;Signal;HPM_P1;HPM_P2
2023/01/22 00:00:18;;;;;;;;;;;;;;;1.34;97.67;102710.73;106822;1267;73375;-82
2023/01/22 00:03:05;;;;;;;;;;;;;;;1.33;97.55;102714.13;106581;1266;125287;-82
2023/01/22 00:05:32;;;;;;;;;;;;;;;1.32;97.31;102711.10;106770;1267;71738;-82
2023/01/22 00:08:01;;;;;;;;;;;;;;;1.30;97.27;102713.86;106488;1266;124822;-82
2023/01/22 00:10:31;;;;;;;;;;;;;;;1.30;97.08;102716.64;106531;1266;61251;-82
2023/01/22 00:12:58;;;;;;;;;;;;;;;1.34;97.12;102716.77;106872;1267;72378;-82
2023/01/22 00:15:25;;;;;;;;;;;;;;;1.35;97.04;102713.44;106903;1266;124794;-82
2023/01/22 00:17:52;;;;;;;;;;;;;;;1.35;96.76;102711.73;108248;1266;73267;-82
2023/01/22 00:20:19;;;;;;;;;;;;;;;1.35;96.51;102709.24;108057;1266;124895;-82
2023/01/22 00:22:46;;;;;;;;;;;;;;;1.32;96.31;102711.44;106899;1267;60149;-83
2023/01/22 00:25:13;;;;;;;;;;;;;;;1.32;96.37;102709.18;107202;1267;74700;-83
2023/01/22 00:27:40;;;;;;;;;;;;;;;1.32;96.07;102707.63;107193;1266;125365;-83
2023/01/22 00:30:08;;;;;;;;;;;;;;;1.32;95.83;102710.20;106856;1267;71973;-83
2023/01/22 00:32:37;;;;;;;;;;;;;;;1.31;95.94;102709.92;106692;1266;124754;-82
2023/01/22 00:35:04;;;;;;;;;;;;;;;1.30;95.69;102708.34;106989;1267;60142;-82
2023/01/22 00:37:32;;;;;;;;;;;;;;;1.29;95.70;102709.38;107069;1267;124806;-83
2023/01/22 00:39:59;;;;;;;;;;;;;;;1.29;95.95;102712.36;107151;1267;67565;-83
2023/01/22 00:42:26;;;;;;;;;;;;;;;1.30;96.02;102712.27;106647;1267;72719;-81
2023/01/22 00:44:55;;;;;;;;;;;;;;;1.32;95.92;102717.64;106522;1267;124778;-82
2023/01/22 00:47:23;;;;;;;;;;;;;;;1.30;95.48;102723.73;106894;1266;61269;-81
2023/01/22 00:49:51;;;;;;;;;;;;;;;1.31;95.52;102725.86;106961;1267;125556;-82
2023/01/22 00:52:18;;;;;;;;;;;;;;;1.32;95.41;102726.33;106862;1266;65345;-82
2023/01/22 00:54:45;;;;;;;;;;;;;;;1.33;95.28;102727.22;106681;1265;71466;-82
2023/01/22 00:57:13;;;;;;;;;;;;;;;1.34;95.38;102731.02;106708;1266;124715;-82
2023/01/22 00:59:40;;;;;;;;;;;;;;;1.32;95.28;102729.40;106684;1266;61278;-83
2023/01/22 01:02:10;;;;;;;;;;;;;;;1.28;95.12;102726.47;106627;1266;125241;-83
2023/01/22 01:04:39;;;;;;;;;;;;;;;1.27;94.78;102730.97;106702;1267;67007;-83
2023/01/22 01:07:05;;;;;;;;;;;;;;;1.27;95.02;102731.33;106850;1266;70973;-83
2023/01/22 01:09:32;;;;;;;;;;;;;;;1.28;95.12;102733.52;106783;1267;125314;-83
2023/01/22 01:12:00;;;;;;;;;;;;;;;1.27;94.90;102736.00;106889;1266;61339;-83
2023/01/22 01:14:27;;;;;;;;;;;;;;;1.22;94.84;102733.63;106981;1266;125329;-84
2023/01/22 01:16:54;;;;;;;;;;;;;;;1.18;94.81;102734.67;106831;1267;66873;-83
2023/01/22 01:19:21;;;;;;;;;;;;;;;1.18;94.85;102737.05;106964;1267;72751;-83
2023/01/22 01:21:48;;;;;;;;;;;;;;;1.16;94.83;102735.15;106747;1267;124719;-83
2023/01/22 01:24:21;;;;;;;;;;;;;;;1.13;94.91;102734.33;106824;1268;61192;-83
2023/01/22 01:26:48;;;;;;;;;;;;;;;1.10;94.63;102733.37;106629;1266;125470;-83
2023/01/22 01:29:18;;;;;;;;;;;;;;;1.10;94.69;102737.83;107055;1267;66549;-83
2023/01/22 01:31:46;;;;;;;;;;;;;;;1.07;94.59;102737.40;106874;1266;124957;-83
2023/01/22 01:34:19;;;;;;;;;;;;;;;1.04;94.72;102733.84;106672;1267;59919;-83
2023/01/22 01:36:47;;;;;;;;;;;;;;;1.03;94.91;102729.38;106637;1267;61298;-83
2023/01/22 01:39:14;;;;;;;;;;;;;;;1.03;94.98;102727.89;106721;1267;124883;-83
2023/01/22 01:41:43;;;;;;;;;;;;;;;1.02;94.90;102730.02;106577;1266;68125;-83
2023/01/22 01:44:14;;;;;;;;;;;;;;;0.99;94.73;102729.40;106592;1267;72531;-83
2023/01/22 01:46:48;;;;;;;;;;;;;;;0.96;94.85;102730.16;106578;1267;61118;-83
2023/01/22 01:49:17;;;;;;;;;;;;;;;0.96;94.86;102728.23;106703;1267;61320;-83
2023/01/22 01:51:44;;;;;;;;;;;;;;;0.97;95.01;102726.42;106325;1267;124729;-82
2023/01/22 01:54:12;;;;;;;;;;;;;;;0.98;94.91;102727.73;106755;1267;65556;-82
2023/01/22 01:56:43;;;;;;;;;;;;;;;0.97;94.88;102730.40;106733;1267;124962;-82
2023/01/22 01:59:11;;;;;;;;;;;;;;;0.99;94.89;102735.64;106666;1267;61361;-82
2023/01/22 02:01:39;;;;;;;;;;;;;;;1.00;94.92;102735.37;106638;1266;124420;-83
2023/01/22 02:04:08;;;;;;;;;;;;;;;1.01;94.88;102744.45;107347;1265;74749;-82
2023/01/22 02:06:35;;;;;;;;;;;;;;;1.00;94.90;102747.05;106905;1267;66735;-83
2023/01/22 02:09:02;;;;;;;;;;;;;;;1.00;94.71;102745.68;106850;1267;125371;-82
2023/01/22 02:11:29;;;;;;;;;;;;;;;1.01;94.86;102745.98;107154;1265;59856;-82
2023/01/22 02:14:00;;;;;;;;;;;;;;;1.01;94.64;102743.60;106711;1266;125212;-81
2023/01/22 02:16:29;;;;;;;;;;;;;;;1.01;94.65;102746.34;106777;1266;73910;-82
2023/01/22 02:18:57;;;;;;;;;;;;;;;1.02;94.67;102749.19;106688;1267;65632;-82
2023/01/22 02:21:50;;;;;;;;;;;;;;;1.04;94.65;102745.58;106470;1267;125486;-82
2023/01/22 02:24:17;;;;;;;;;;;;;;;1.04;94.57;102749.36;106597;1272;61557;-82
2023/01/22 02:26:46;;;;;;;;;;;;;;;1.01;94.48;102748.27;106834;1270;124680;-82
2023/01/22 02:29:13;;;;;;;;;;;;;;;1.01;94.58;102749.79;106846;1267;73468;-81
2023/01/22 02:31:40;;;;;;;;;;;;;;;1.02;94.56;102750.56;106660;1266;125125;-81
2023/01/22 02:34:07;;;;;;;;;;;;;;;1.03;94.44;102755.85;106836;1266;71552;-81
2023/01/22 02:36:35;;;;;;;;;;;;;;;1.03;94.57;102755.01;107066;1267;61160;-84
2023/01/22 02:39:02;;;;;;;;;;;;;;;1.05;94.55;102757.44;106726;1267;125652;-83
2023/01/22 02:41:30;;;;;;;;;;;;;;;1.10;94.59;102762.58;106698;1267;74827;-82
2023/01/22 02:43:57;;;;;;;;;;;;;;;1.14;94.60;102763.27;106746;1267;124851;-81
2023/01/22 02:46:25;;;;;;;;;;;;;;;1.17;94.68;102763.29;106768;1265;71775;-81
2023/01/22 02:48:52;;;;;;;;;;;;;;;1.20;94.58;102765.04;107013;1267;61320;-81
2023/01/22 02:51:19;;;;;;;;;;;;;;;1.22;94.51;102766.34;106605;1267;125131;-82
2023/01/22 02:53:47;;;;;;;;;;;;;;;1.23;94.43;102767.07;106939;1266;74085;-82
2023/01/22 02:56:14;;;;;;;;;;;;;;;1.20;94.34;102765.58;107023;1267;125071;-82
2023/01/22 02:58:42;;;;;;;;;;;;;;;1.19;94.35;102765.39;107146;1267;73116;-82
2023/01/22 03:01:22;;;;;;;;;;;;;;;1.20;94.32;102767.70;107209;1267;61540;-82
2023/01/22 03:03:55;;;;;;;;;;;;;;;1.22;94.29;102768.72;106518;1267;125081;-82
2023/01/22 03:06:25;;;;;;;;;;;;;;;1.23;94.25;102769.88;107074;1267;74798;-82
2023/01/22 03:08:53;;;;;;;;;;;;;;;1.21;94.15;102770.38;106693;1266;125463;-82
2023/01/22 03:11:20;;;;;;;;;;;;;;;1.18;93.87;102766.75;106641;1267;71483;-82
2023/01/22 03:22:04;;;;;;;;;;;;;;;1.14;94.10;102773.00;106875;1266;66805;-82
2023/01/22 03:24:31;;;;;;;;;;;;;;;1.14;94.21;102774.02;106903;1267;71558;-82
2023/01/22 03:26:58;;;;;;;;;;;;;;;1.12;94.04;102773.52;106918;1266;124637;-82
2023/01/22 03:29:25;;;;;;;;;;;;;;;1.12;94.02;102772.30;106886;1266;61302;-82
2023/01/22 03:31:52;;;;;;;;;;;;;;;1.11;93.92;102773.77;106901;1266;125890;-82
2023/01/22 03:34:19;;;;;;;;;;;;;;;1.10;93.83;102774.02;106873;1267;65818;-80
2023/01/22 03:36:47;;;;;;;;;;;;;;;1.11;93.96;102770.30;107223;1266;71261;-83
2023/01/22 03:39:14;;;;;;;;;;;;;;;1.11;94.03;102772.39;107375;1268;124777;-80
2023/01/22 03:41:41;;;;;;;;;;;;;;;1.12;93.93;102773.39;107134;1266;59342;-80
2023/01/22 03:44:10;;;;;;;;;;;;;;;1.13;94.00;102776.08;107012;1265;125400;-81
2023/01/22 03:46:39;;;;;;;;;;;;;;;1.14;93.78;102768.85;107117;1266;65538;-83
2023/01/22 03:49:06;;;;;;;;;;;;;;;1.15;93.88;102770.52;107070;1267;72711;-80
2023/01/22 03:51:33;;;;;;;;;;;;;;;1.15;93.67;102772.41;108015;1269;125289;-81
2023/01/22 03:54:00;;;;;;;;;;;;;;;1.14;93.65;102771.59;108169;1267;59376;-81
2023/01/22 03:56:27;;;;;;;;;;;;;;;1.13;93.49;102771.17;108133;1268;124655;-81
2023/01/22 03:58:55;;;;;;;;;;;;;;;1.12;93.45;102770.40;108237;1267;65772;-81
2023/01/22 04:01:22;;;;;;;;;;;;;;;1.14;93.57;102772.84;108127;1267;73236;-81
2023/01/22 04:03:50;;;;;;;;;;;;;;;1.16;93.38;102779.27;108055;1266;125083;-81
2023/01/22 04:06:17;;;;;;;;;;;;;;;1.17;93.25;102779.36;108059;1267;61039;-81
2023/01/22 04:08:44;;;;;;;;;;;;;;;1.15;93.28;102780.68;108098;1267;127009;-82
2023/01/22 04:11:11;;;;;;;;;;;;;;;1.17;93.27;102784.15;106746;1267;66967;-82
2023/01/22 04:13:39;;;;;;;;;;;;;;;1.17;92.97;102785.73;106456;1266;71348;-82
2023/01/22 04:16:06;;;;;;;;;;;;;;;1.17;93.12;102786.77;106643;1266;125280;-82
2023/01/22 04:18:33;;;;;;;;;;;;;;;1.16;93.14;102785.63;106504;1266;60190;-82
2023/01/22 04:21:00;;;;;;;;;;;;;;;1.14;92.89;102787.89;106424;1267;124643;-81
2023/01/22 04:23:27;;;;;;;;;;;;;;;1.16;93.07;102790.88;106578;1267;65715;-81
2023/01/22 04:25:54;;;;;;;;;;;;;;;1.14;92.97;102792.02;106505;1266;125278;-81
2023/01/22 04:28:22;;;;;;;;;;;;;;;1.13;92.79;102795.92;106973;1267;61215;-81
2023/01/22 04:30:50;;;;;;;;;;;;;;;1.13;92.80;102793.82;106940;1266;61205;-81
2023/01/22 04:33:17;;;;;;;;;;;;;;;1.13;93.03;102794.23;106637;1267;124743;-81
2023/01/22 04:35:44;;;;;;;;;;;;;;;1.11;92.39;102801.23;106744;1269;65752;-81
2023/01/22 04:38:11;;;;;;;;;;;;;;;1.03;92.44;102799.39;106795;1270;125020;-81
2023/01/22 04:40:38;;;;;;;;;;;;;;;0.99;92.28;102799.90;106805;1266;61392;-81
2023/01/22 04:43:08;;;;;;;;;;;;;;;0.98;92.57;102803.47;107108;1267;61272;-81
2023/01/22 04:45:35;;;;;;;;;;;;;;;0.99;92.46;102802.54;107021;1267;125407;-81
2023/01/22 04:48:03;;;;;;;;;;;;;;;0.99;92.52;102803.87;106856;1270;67110;-81
2023/01/22 04:50:31;;;;;;;;;;;;;;;0.97;92.36;102804.64;106456;1268;124967;-81
2023/01/22 04:52:58;;;;;;;;;;;;;;;0.97;92.45;102811.65;107139;1272;61355;-81
2023/01/22 04:55:26;;;;;;;;;;;;;;;0.95;92.16;102817.03;107385;1267;61081;-81
2023/01/22 04:57:55;;;;;;;;;;;;;;;0.94;92.16;102818.77;106763;1266;125201;-81
2023/01/22 05:00:22;;;;;;;;;;;;;;;0.94;92.14;102823.87;106583;1267;67046;-81
2023/01/22 05:02:49;;;;;;;;;;;;;;;0.92;92.08;102826.58;106761;1267;124917;-81
2023/01/22 05:05:16;;;;;;;;;;;;;;;0.87;91.93;102834.01;107064;1267;61228;-81
2023/01/22 05:07:46;;;;;;;;;;;;;;;0.82;91.98;102831.30;107123;1266;125351;-82
2023/01/22 05:10:13;;;;;;;;;;;;;;;0.83;91.95;102833.63;107142;1269;73612;-81
2023/01/22 05:12:40;;;;;;;;;;;;;;;0.84;91.96;102833.73;107202;1268;67093;-81
2023/01/22 05:15:07;;;;;;;;;;;;;;;0.83;91.85;102831.88;107110;1267;124772;-81
2023/01/22 05:17:35;;;;;;;;;;;;;;;0.83;91.79;102837.80;107100;1268;61400;-81
2023/01/22 05:20:03;;;;;;;;;;;;;;;0.83;91.74;102839.81;106567;1267;124949;-81
2023/01/22 05:22:31;;;;;;;;;;;;;;;0.81;91.60;102841.03;106803;1267;74732;-81
2023/01/22 05:24:57;;;;;;;;;;;;;;;0.76;91.73;102840.09;107166;1266;67136;-81
2023/01/22 05:27:24;;;;;;;;;;;;;;;0.77;91.79;102843.99;106849;1266;125002;-82
2023/01/22 05:29:51;;;;;;;;;;;;;;;0.81;91.89;102847.26;106655;1266;61411;-82
2023/01/22 05:32:18;;;;;;;;;;;;;;;0.82;91.71;102850.09;106374;1267;125436;-82
2023/01/22 05:34:46;;;;;;;;;;;;;;;0.76;91.42;102850.99;106782;1267;74479;-82
2023/01/22 05:37:12;;;;;;;;;;;;;;;0.75;91.30;102852.89;106841;1266;67033;-82
2023/01/22 05:39:41;;;;;;;;;;;;;;;0.74;91.41;102848.15;106453;1270;124656;-82
2023/01/22 05:42:11;;;;;;;;;;;;;;;0.73;91.39;102841.65;108188;1266;59818;-82
2023/01/22 05:44:38;;;;;;;;;;;;;;;0.77;91.41;102844.79;107711;1267;125299;-82
2023/01/22 05:47:05;;;;;;;;;;;;;;;0.79;91.27;102850.19;106777;1270;75788;-82
2023/01/22 05:49:32;;;;;;;;;;;;;;;0.77;91.30;102850.53;106813;1267;66034;-82
2023/01/22 05:51:59;;;;;;;;;;;;;;;0.79;91.26;102857.14;106669;1267;124685;-82
2023/01/22 05:54:26;;;;;;;;;;;;;;;0.81;91.27;102860.73;106790;1269;61364;-82
2023/01/22 05:56:53;;;;;;;;;;;;;;;0.80;91.09;102868.81;106672;1267;125290;-82
2023/01/22 05:59:21;;;;;;;;;;;;;;;0.76;90.85;102867.05;106854;1267;73838;-82
2023/01/22 06:01:49;;;;;;;;;;;;;;;0.73;90.84;102864.79;107135;1267;124684;-82
2023/01/22 06:04:16;;;;;;;;;;;;;;;0.73;90.96;102865.84;107002;1268;71445;-81
2023/01/22 06:06:43;;;;;;;;;;;;;;;0.76;90.96;102862.94;107066;1267;59618;-82
2023/01/22 06:09:11;;;;;;;;;;;;;;;0.76;91.03;102861.36;106900;1269;125559;-82
2023/01/22 06:11:38;;;;;;;;;;;;;;;0.77;90.81;102858.18;106958;1267;73376;-81
2023/01/22 06:14:05;;;;;;;;;;;;;;;0.80;90.83;102858.75;107100;1267;125330;-83
2023/01/22 06:16:32;;;;;;;;;;;;;;;0.82;90.74;102866.22;106884;1266;71397;-82
2023/01/22 06:18:59;;;;;;;;;;;;;;;0.84;90.67;102872.23;107153;1267;59439;-82
2023/01/22 06:21:26;;;;;;;;;;;;;;;0.85;90.72;102877.40;106852;1267;124730;-82
2023/01/22 06:23:53;;;;;;;;;;;;;;;0.89;90.82;102881.24;106889;1267;73381;-82
2023/01/22 06:26:20;;;;;;;;;;;;;;;0.90;90.50;102885.27;107011;1268;125057;-82
2023/01/22 06:28:54;;;;;;;;;;;;;;;0.92;90.83;102890.33;107088;1268;72434;-82
2023/01/22 06:31:21;;;;;;;;;;;;;;;0.92;90.79;102896.45;107024;1267;59531;-82
2023/01/22 06:33:48;;;;;;;;;;;;;;;0.89;90.30;102899.06;106889;1267;125022;-81
2023/01/22 06:36:15;;;;;;;;;;;;;;;0.90;90.64;102904.03;106652;1267;72336;-82
2023/01/22 06:38:41;;;;;;;;;;;;;;;0.91;90.62;102904.95;106545;1270;124841;-81
2023/01/22 06:41:08;;;;;;;;;;;;;;;0.93;90.63;102907.93;106700;1266;72796;-81
2023/01/22 06:43:38;;;;;;;;;;;;;;;0.93;90.71;102909.98;106647;1266;61699;-83
2023/01/22 06:46:05;;;;;;;;;;;;;;;0.90;90.55;102912.97;106707;1267;125542;-82
2023/01/22 06:48:32;;;;;;;;;;;;;;;0.86;90.55;102916.23;106960;1267;75614;-82
2023/01/22 06:51:03;;;;;;;;;;;;;;;0.79;90.41;102918.10;106625;1266;124675;-82
2023/01/22 06:53:30;;;;;;;;;;;;;;;0.70;90.37;102918.85;106844;1266;71621;-83
2023/01/22 06:55:58;;;;;;;;;;;;;;;0.71;90.62;102919.91;106679;1266;124839;-81
2023/01/22 06:58:27;;;;;;;;;;;;;;;0.69;90.57;102925.61;106802;1267;59774;-81
2023/01/22 07:00:54;;;;;;;;;;;;;;;0.65;90.47;102927.95;107074;1265;74544;-82
2023/01/22 07:03:21;;;;;;;;;;;;;;;0.64;90.45;102933.70;106994;1268;125209;-82
2023/01/22 07:05:55;;;;;;;;;;;;;;;0.66;90.55;102936.32;106813;1270;71079;-83
2023/01/22 07:08:22;;;;;;;;;;;;;;;0.65;90.64;102936.43;106517;1270;125435;-81
2023/01/22 07:10:49;;;;;;;;;;;;;;;0.65;90.37;102938.48;106521;1270;61456;-81
2023/01/22 07:13:16;;;;;;;;;;;;;;;0.68;90.61;102942.10;106788;1267;72844;-83
2023/01/22 07:15:43;;;;;;;;;;;;;;;0.70;90.57;102940.34;106478;1267;124748;-83
2023/01/22 07:18:13;;;;;;;;;;;;;;;0.69;90.34;102943.76;106486;1270;73904;-83
2023/01/22 07:20:43;;;;;;;;;;;;;;;0.69;90.22;102949.05;106828;1266;125623;-83
2023/01/22 07:23:10;;;;;;;;;;;;;;;0.69;90.33;102953.04;107491;1271;59982;-83
2023/01/22 07:25:37;;;;;;;;;;;;;;;0.70;90.16;102953.98;107392;1266;74581;-84
2023/01/22 07:28:04;;;;;;;;;;;;;;;0.73;90.29;102959.91;107282;1268;125210;-82
2023/01/22 07:30:31;;;;;;;;;;;;;;;0.78;90.14;102968.49;107277;1267;72708;-82
2023/01/22 07:32:59;;;;;;;;;;;;;;;0.79;90.24;102970.99;106949;1266;124901;-83
2023/01/22 07:35:28;;;;;;;;;;;;;;;0.81;90.25;102971.87;107044;1267;59530;-83
2023/01/22 07:37:56;;;;;;;;;;;;;;;0.86;90.07;102974.15;107050;1266;125495;-84
2023/01/22 07:40:23;;;;;;;;;;;;;;;0.91;90.20;102977.73;106903;1267;67374;-83
2023/01/22 07:42:50;;;;;;;;;;;;;;;0.98;90.31;102983.55;106755;1267;71307;-83
2023/01/22 07:45:18;;;;;;;;;;;;;;;1.01;90.33;102986.45;106739;1268;125270;-82
2023/01/22 07:47:54;;;;;;;;;;;;;;;1.04;89.96;102987.27;106878;1267;61205;-83
2023/01/22 07:50:21;;;;;;;;;;;;;;;1.07;89.98;102990.24;106723;1267;125315;-83
2023/01/22 07:52:48;;;;;;;;;;;;;;;1.11;90.05;102989.52;106703;1267;67570;-82
2023/01/22 07:55:15;;;;;;;;;;;;;;;1.14;89.82;102992.95;106852;1267;70705;-82
2023/01/22 07:57:46;;;;;;;;;;;;;;;1.17;89.93;102998.23;106653;1267;124891;-84
2023/01/22 08:00:15;;;;;;;;;;;;;;;1.19;89.82;103001.42;106747;1267;61301;-84
2023/01/22 08:02:45;;;;;;;;;;;;;;;1.21;89.55;103002.75;106521;1269;124912;-84
2023/01/22 08:05:13;;;;;;;;;;;;;;;1.21;89.65;103004.71;106433;1266;67599;-84
2023/01/22 08:07:42;;;;;;;;;;;;;;;1.22;89.65;103006.71;106543;1268;72767;-82
2023/01/22 08:10:10;;;;;;;;;;;;;;;1.21;89.55;103006.65;106807;1266;61176;-82
2023/01/22 08:12:40;;;;;;;;;;;;;;;1.22;89.52;103010.84;106689;1269;61710;-83
2023/01/22 08:15:07;;;;;;;;;;;;;;;1.22;89.41;103015.73;106490;1267;124860;-83
2023/01/22 08:17:40;;;;;;;;;;;;;;;1.23;89.54;103015.66;106680;1267;65759;-84
2023/01/22 08:20:16;;;;;;;;;;;;;;;1.22;89.37;103014.17;106837;1270;124876;-84
2023/01/22 08:22:44;;;;;;;;;;;;;;;1.22;89.33;103018.80;106857;1266;61365;-83
2023/01/22 08:25:14;;;;;;;;;;;;;;;1.15;89.08;103016.23;106666;1267;61304;-84
2023/01/22 08:27:43;;;;;;;;;;;;;;;1.12;89.04;103020.64;106587;1267;124835;-82
2023/01/22 08:30:10;;;;;;;;;;;;;;;1.08;89.02;103020.57;106483;1269;189575;-82
2023/01/22 08:32:40;;;;;;;;;;;;;;;1.10;89.15;103021.42;106505;1267;126240;-82
2023/01/22 08:35:07;;;;;;;;;;;;;;;1.12;89.08;103019.53;106575;1269;61263;-82
2023/01/22 08:37:34;;;;;;;;;;;;;;;1.11;88.93;103017.37;106631;1266;61297;-82
2023/01/22 08:40:01;;;;;;;;;;;;;;;1.11;89.01;103020.52;106777;1267;125540;-82
2023/01/22 08:42:31;;;;;;;;;;;;;;;1.12;88.89;103031.31;106574;1265;66203;-82
2023/01/22 08:44:58;;;;;;;;;;;;;;;1.07;88.85;103035.01;106546;1270;124869;-81
2023/01/22 08:47:25;;;;;;;;;;;;;;;1.04;88.71;103031.85;106689;1267;61415;-82
2023/01/22 08:49:52;;;;;;;;;;;;;;;1.02;88.59;103037.20;106586;1268;125029;-82
2023/01/22 08:52:20;;;;;;;;;;;;;;;1.02;88.79;103040.19;106610;1267;72753;-82
2023/01/22 08:54:53;;;;;;;;;;;;;;;1.02;88.90;103040.19;106778;1266;67282;-82
2023/01/22 08:57:20;;;;;;;;;;;;;;;1.03;88.73;103047.91;106530;1267;124866;-81
2023/01/22 08:59:49;;;;;;;;;;;;;;;1.02;88.75;103047.94;106496;1270;61522;-84
2023/01/22 09:02:16;;;;;;;;;;;;;;;0.99;88.67;103045.59;106322;1267;125448;-84
2023/01/22 09:04:47;;;;;;;;;;;;;;;0.97;88.80;103045.07;106521;1266;74742;-82
2023/01/22 09:07:14;;;;;;;;;;;;;;;0.94;88.66;103045.83;106742;1267;67331;-83
2023/01/22 09:09:41;;;;;;;;;;;;;;;0.92;88.62;103044.92;106197;1267;124818;-83
2023/01/22 09:12:07;;;;;;;;;;;;;;;0.93;88.76;103050.16;106583;1267;61301;-82
2023/01/22 09:14:35;;;;;;;;;;;;;;;0.95;88.73;103050.22;106540;1267;125309;-83
2023/01/22 09:17:03;;;;;;;;;;;;;;;1.00;88.93;103055.02;106838;1270;74448;-83
2023/01/22 09:19:30;;;;;;;;;;;;;;;1.05;89.05;103053.80;106515;1267;66893;-83
2023/01/22 09:22:05;;;;;;;;;;;;;;;1.08;88.80;103058.38;106451;1269;125120;-81
2023/01/22 09:24:32;;;;;;;;;;;;;;;1.08;88.69;103059.11;106661;1270;59523;-81
2023/01/22 09:27:01;;;;;;;;;;;;;;;1.08;88.55;103059.23;106591;1268;125359;-82
2023/01/22 09:29:29;;;;;;;;;;;;;;;1.13;88.93;103064.83;106575;1271;74769;-83
2023/01/22 09:31:56;;;;;;;;;;;;;;;1.21;88.77;103065.55;106509;1270;125264;-82
2023/01/22 09:34:23;;;;;;;;;;;;;;;1.26;88.73;103060.80;106975;1275;71402;-81
2023/01/22 09:36:50;;;;;;;;;;;;;;;1.32;88.72;103059.30;107001;1266;61214;-80
2023/01/22 09:39:17;;;;;;;;;;;;;;;1.36;88.65;103056.40;106926;1266;124683;-82
2023/01/22 09:41:46;;;;;;;;;;;;;;;1.43;88.61;103061.69;106901;1267;73411;-82
2023/01/22 09:44:22;;;;;;;;;;;;;;;1.42;88.34;103058.03;106913;1269;125535;-82
2023/01/22 09:46:53;;;;;;;;;;;;;;;1.37;87.99;103053.73;106715;1270;72749;-82
2023/01/22 09:49:23;;;;;;;;;;;;;;;1.40;88.25;103057.14;106840;1267;61377;-82
2023/01/22 09:51:54;;;;;;;;;;;;;;;1.43;88.29;103056.89;106585;1265;124736;-82
2023/01/22 09:54:21;;;;;;;;;;;;;;;1.43;88.20;103058.90;106648;1273;75428;-82
2023/01/22 09:56:54;;;;;;;;;;;;;;;1.43;88.19;103063.81;106770;1266;125195;-81
2023/01/22 09:59:31;;;;;;;;;;;;;;;1.46;88.16;103061.00;106746;1273;72136;-82
2023/01/22 10:01:59;;;;;;;;;;;;;;;1.49;88.00;103065.77;107220;1272;125350;-83
2023/01/22 10:04:36;;;;;;;;;;;;;;;1.43;87.85;103065.04;106907;1267;61193;-81
2023/01/22 10:07:13;;;;;;;;;;;;;;;1.38;87.79;103067.27;106804;1267;74012;-81
2023/01/22 10:09:50;;;;;;;;;;;;;;;1.31;87.64;103066.30;106600;1270;125190;-82
2023/01/22 10:12:17;;;;;;;;;;;;;;;1.29;87.89;103068.51;106933;1269;71447;-83
2023/01/22 10:14:50;;;;;;;;;;;;;;;1.35;88.18;103075.98;106909;1267;125266;-82
2023/01/22 10:17:20;;;;;;;;;;;;;;;1.42;88.43;103075.48;107069;1266;61250;-82
2023/01/22 10:19:54;;;;;;;;;;;;;;;1.49;88.18;103072.88;106867;1267;74428;-84
2023/01/22 10:22:22;;;;;;;;;;;;;;;1.54;88.22;103073.70;106515;1269;67085;-82
2023/01/22 10:24:50;;;;;;;;;;;;;;;1.58;87.88;103071.98;106602;1267;71322;-82
2023/01/22 10:27:18;;;;;;;;;;;;;;;1.61;87.96;103076.27;106446;1272;124850;-81
2023/01/22 10:29:57;;;;;;;;;;;;;;;1.62;87.82;103077.26;106773;1267;61340;-81
2023/01/22 10:32:32;;;;;;;;;;;;;;;1.65;87.80;103072.35;106289;1267;125051;-82
2023/01/22 10:35:00;;;;;;;;;;;;;;;1.67;87.66;103074.60;106230;1267;65821;-84
2023/01/22 10:37:28;;;;;;;;;;;;;;;1.71;87.73;103069.14;106251;1265;73302;-81
2023/01/22 10:39:58;;;;;;;;;;;;;;;1.78;87.80;103069.15;106262;1267;124678;-82
2023/01/22 10:42:26;;;;;;;;;;;;;;;1.88;87.84;103069.55;106738;1267;61329;-81
2023/01/22 10:45:08;;;;;;;;;;;;;;;1.95;87.91;103067.86;106539;1270;125326;-80
2023/01/22 10:47:37;;;;;;;;;;;;;;;2.07;87.90;103065.53;107493;1267;66049;-83
2023/01/22 10:50:09;;;;;;;;;;;;;;;2.11;87.60;103065.27;106626;1267;125476;-83
2023/01/22 10:52:40;;;;;;;;;;;;;;;2.12;87.38;103067.13;106447;1267;61248;-81
2023/01/22 10:55:27;;;;;;;;;;;;;;;2.13;87.23;103065.57;106558;1271;61308;-81
2023/01/22 10:57:58;;;;;;;;;;;;;;;2.23;87.35;103064.44;106299;1270;124843;-81
2023/01/22 11:00:37;;;;;;;;;;;;;;;2.33;87.36;103069.74;106463;1267;64684;-83
2023/01/22 11:03:18;;;;;;;;;;;;;;;2.40;86.98;103075.05;106463;1267;125327;-81
2023/01/22 11:05:53;;;;;;;;;;;;;;;2.38;86.91;103079.20;106569;1267;61432;-81
2023/01/22 11:08:26;;;;;;;;;;;;;;;2.38;86.66;103078.34;106510;1267;126370;-83
2023/01/22 11:10:58;;;;;;;;;;;;;;;2.39;86.46;103074.67;106736;1267;73086;-82
2023/01/22 11:13:40;;;;;;;;;;;;;;;2.35;86.19;103077.93;106817;1267;65592;-82
2023/01/22 11:16:20;;;;;;;;;;;;;;;2.29;86.28;103074.36;106527;1267;124195;-84
2023/01/22 11:18:50;;;;;;;;;;;;;;;2.32;86.38;103072.95;106483;1267;61268;-82
2023/01/22 11:21:23;;;;;;;;;;;;;;;2.30;86.27;103067.52;106556;1267;124750;-80
2023/01/22 11:23:58;;;;;;;;;;;;;;;2.24;86.15;103071.52;107174;1270;74786;-81
2023/01/22 11:26:25;;;;;;;;;;;;;;;2.21;86.19;103067.25;106996;1266;126467;-82
2023/01/22 11:28:57;;;;;;;;;;;;;;;2.21;86.16;103068.05;106935;1267;72558;-83
2023/01/22 11:31:26;;;;;;;;;;;;;;;2.21;86.19;103070.34;106849;1267;61294;-82
2023/01/22 11:34:02;;;;;;;;;;;;;;;2.25;86.13;103071.58;106797;1266;125263;-83
2023/01/22 11:36:33;;;;;;;;;;;;;;;2.25;85.85;103072.64;106756;1267;77333;-82
2023/01/22 11:39:21;;;;;;;;;;;;;;;2.24;85.82;103072.69;106469;1267;125476;-83
2023/01/22 11:42:27;;;;;;;;;;;;;;;2.21;85.91;103066.37;106623;1272;74534;-81
2023/01/22 11:45:20;;;;;;;;;;;;;;;2.22;85.91;103069.39;106415;1273;125016;-83
2023/01/22 11:47:49;;;;;;;;;;;;;;;2.25;85.99;103067.24;106863;1266;61333;-83
2023/01/22 11:50:31;;;;;;;;;;;;;;;2.26;85.65;103066.63;106745;1269;125050;-83
2023/01/22 11:53:01;;;;;;;;;;;;;;;2.20;85.64;103063.83;106664;1267;65894;-83
2023/01/22 11:55:30;;;;;;;;;;;;;;;2.20;85.79;103065.39;107086;1267;72734;-83
2023/01/22 11:58:16;;;;;;;;;;;;;;;2.21;85.77;103067.59;106644;1271;125080;-81
2023/01/22 12:01:02;;;;;;;;;;;;;;;2.24;85.86;103063.91;106624;1267;61736;-83
2023/01/22 12:03:29;;;;;;;;;;;;;;;2.28;85.87;103066.13;106696;1267;125005;-83
2023/01/22 12:05:56;;;;;;;;;;;;;;;2.25;85.66;103063.23;107030;1265;65572;-83
2023/01/22 12:08:26;;;;;;;;;;;;;;;2.27;85.74;103064.52;106875;1267;126514;-81
2023/01/22 12:10:54;;;;;;;;;;;;;;;2.29;85.68;103064.67;107001;1266;61266;-82
2023/01/22 12:13:25;;;;;;;;;;;;;;;2.30;85.71;103065.33;106922;1267;61124;-81
2023/01/22 12:15:58;;;;;;;;;;;;;;;2.35;85.66;103065.23;106711;1266;124931;-83
2023/01/22 12:18:44;;;;;;;;;;;;;;;2.45;86.06;103063.06;106731;1267;66777;-83
2023/01/22 12:21:13;;;;;;;;;;;;;;;2.59;86.22;103058.52;106794;1266;125385;-82
2023/01/22 12:23:41;;;;;;;;;;;;;;;2.62;85.82;103056.36;106929;1267;61471;-82
2023/01/22 12:26:10;;;;;;;;;;;;;;;2.59;85.61;103055.52;107013;1267;124771;-83
2023/01/22 12:28:56;;;;;;;;;;;;;;;2.56;85.64;103054.22;106799;1267;73461;-84
2023/01/22 12:31:25;;;;;;;;;;;;;;;2.57;85.51;103053.45;107041;1267;66965;-82
2023/01/22 12:33:52;;;;;;;;;;;;;;;2.60;85.66;103053.19;106830;1265;125204;-82
2023/01/22 12:36:20;;;;;;;;;;;;;;;2.61;85.48;103052.77;106841;1267;61801;-82
2023/01/22 12:38:53;;;;;;;;;;;;;;;2.58;85.45;103049.73;106704;1267;124908;-81
2023/01/22 12:41:39;;;;;;;;;;;;;;;2.66;85.63;103046.02;108161;1267;73407;-82
2023/01/22 12:44:09;;;;;;;;;;;;;;;2.74;85.55;103045.54;108224;1266;124817;-82
2023/01/22 12:46:45;;;;;;;;;;;;;;;2.77;85.31;103045.46;108314;1265;73300;-81
2023/01/22 12:49:15;;;;;;;;;;;;;;;2.80;85.34;103046.55;108189;1267;59416;-83
2023/01/22 12:51:45;;;;;;;;;;;;;;;2.83;85.38;103051.55;108075;1267;125298;-83